Terminal Aerodrome Forecast
Issued by NWS Wichita, KS

Home | Current Version | Previous Version | Text Only | Print | Product List | Glossary On
Versions: 1 2 3 4 5 6 7 8 9 10 11 12 13 14 15 16 17 18
000
FTUS43 KICT 140500
TAFICT
TAF
KICT 140522Z 1406/1506 35021G30KT P6SM SCT009 OVC014
      TEMPO 1408/1410 5SM -SN BR SCT007 OVC012
     FM141000 35022G31KT 3SM -SN BR OVC009
     FM141500 36021G30KT P6SM SCT012 BKN020
     FM141700 35018G27KT P6SM SCT020 BKN040
     FM150000 32009KT P6SM SCT100=

USA.gov is the U.S. government's official web portal to all federal, state and local government web resources and services.